Time;durP1;ratioP1;P1;durP2;ratioP2;P2;SDS_P1;SDS_P2;PMS_P1;PMS_P2;Temp;Humidity;BMP_temperature;BMP_pressure;BME280_temperature;BME280_humidity;BME280_pressure;Samples;Min_cycle;Max_cycle;Signal;HPM_P1;HPM_P2
2021/04/12 00:02:28;;;;;;;60.95;7.40;;;4.90;1.00;;;;;;5071946;28;20291;-69
2021/04/12 00:05:01;;;;;;;60.85;7.80;;;4.90;1.00;;;;;;5071946;28;20609;-68
2021/04/12 00:07:35;;;;;;;60.72;8.23;;;4.80;1.00;;;;;;5072065;28;20295;-68
2021/04/12 00:10:11;;;;;;;60.63;7.82;;;4.80;1.00;;;;;;5072065;28;20225;-68
2021/04/12 00:12:42;;;;;;;60.63;7.38;;;4.80;1.00;;;;;;5071727;28;20687;-69
2021/04/12 00:15:15;;;;;;;62.33;8.63;;;4.70;1.00;;;;;;5071881;28;20653;-68
2021/04/12 00:17:46;;;;;;;61.33;8.65;;;4.70;1.00;;;;;;5072200;28;20197;-69
2021/04/12 00:20:22;;;;;;;60.80;8.15;;;4.70;1.00;;;;;;5071757;28;20316;-69
2021/04/12 00:22:53;;;;;;;61.88;8.20;;;4.60;1.00;;;;;;5071857;28;20287;-68
2021/04/12 00:25:25;;;;;;;61.58;8.65;;;4.60;1.00;;;;;;5071815;28;20215;-69
2021/04/12 00:27:56;;;;;;;60.90;7.82;;;4.50;1.00;;;;;;5071668;28;20287;-69
2021/04/12 00:30:26;;;;;;;61.40;7.93;;;4.50;1.00;;;;;;5071622;28;20211;-69
2021/04/12 00:32:58;;;;;;;62.30;8.60;;;4.50;1.00;;;;;;5071909;28;20201;-69
2021/04/12 00:35:31;;;;;;;60.65;7.90;;;4.50;1.00;;;;;;5071812;28;20329;-70
2021/04/12 00:38:06;;;;;;;61.25;7.53;;;4.40;1.00;;;;;;5071559;28;20236;-70
2021/04/12 00:40:39;;;;;;;62.35;8.40;;;4.40;1.00;;;;;;5071314;28;20299;-69
2021/04/12 00:43:16;;;;;;;62.53;8.43;;;4.40;1.00;;;;;;5071587;28;20220;-69
2021/04/12 00:46:08;;;;;;;60.90;7.72;;;4.40;1.00;;;;;;5071608;28;20205;-69
2021/04/12 00:49:14;;;;;;;63.20;8.20;;;4.40;1.00;;;;;;5071511;28;20255;-69
2021/04/12 00:51:50;;;;;;;62.28;8.23;;;4.40;1.00;;;;;;5071785;28;20300;-70
2021/04/12 00:54:42;;;;;;;62.35;8.93;;;4.40;1.00;;;;;;5071639;28;20616;-70
2021/04/12 00:57:17;;;;;;;61.60;8.63;;;4.30;1.00;;;;;;5071351;28;20299;-70
2021/04/12 00:59:50;;;;;;;60.85;7.88;;;4.20;1.00;;;;;;5071325;28;20220;-70
2021/04/12 01:02:31;;;;;;;61.17;8.13;;;4.20;1.00;;;;;;5071208;28;20768;-70
2021/04/12 01:05:09;;;;;;;62.22;8.07;;;4.20;1.00;;;;;;5071287;28;20221;-69
2021/04/12 01:08:14;;;;;;;61.97;8.30;;;4.20;1.00;;;;;;5071297;28;20286;-69
2021/04/12 01:10:59;;;;;;;61.38;8.88;;;4.20;1.00;;;;;;5071425;28;20212;-69
2021/04/12 01:13:44;;;;;;;61.22;8.38;;;4.20;1.00;;;;;;5071062;28;20699;-69
2021/04/12 01:16:29;;;;;;;62.17;9.25;;;4.20;1.00;;;;;;5071183;28;20681;-69
2021/04/12 01:19:26;;;;;;;63.53;9.80;;;4.10;1.00;;;;;;5071122;28;20261;-69
2021/04/12 01:22:25;;;;;;;61.80;8.30;;;4.10;1.00;;;;;;5070941;28;20325;-69
2021/04/12 01:25:20;;;;;;;62.40;8.80;;;4.00;1.00;;;;;;5061983;28;20235;-70
2021/04/12 01:28:20;;;;;;;62.10;8.15;;;4.00;1.00;;;;;;5071134;28;20343;-70
2021/04/12 01:31:18;;;;;;;62.72;8.70;;;4.00;1.00;;;;;;5071099;28;20673;-70
2021/04/12 01:34:19;;;;;;;62.83;8.82;;;4.00;1.00;;;;;;5071130;28;20221;-70
2021/04/12 01:36:53;;;;;;;62.40;9.25;;;3.90;1.00;;;;;;5070815;28;20248;-70
2021/04/12 01:39:58;;;;;;;61.38;8.50;;;3.90;1.00;;;;;;5071156;28;20229;-69
2021/04/12 01:42:33;;;;;;;62.30;8.48;;;3.90;1.00;;;;;;5071000;28;20304;-68
2021/04/12 01:45:14;;;;;;;62.42;8.65;;;3.80;1.00;;;;;;5074346;28;20315;-69
2021/04/12 01:47:59;;;;;;;61.13;7.70;;;3.80;1.00;;;;;;5074845;28;20746;-69
2021/04/12 01:50:40;;;;;;;61.80;8.50;;;3.80;1.00;;;;;;5074503;28;20621;-70
2021/04/12 01:53:50;;;;;;;61.10;7.65;;;3.70;1.00;;;;;;5074525;28;20697;-70
2021/04/12 01:56:37;;;;;;;61.63;7.55;;;3.70;1.00;;;;;;5074493;28;20205;-69
2021/04/12 01:59:28;;;;;;;62.72;7.97;;;3.70;1.00;;;;;;5074382;28;20247;-70
2021/04/12 02:02:17;;;;;;;63.40;8.10;;;3.70;1.00;;;;;;5074005;28;20299;-70
2021/04/12 02:05:01;;;;;;;61.17;7.97;;;3.70;1.00;;;;;;5074373;28;20227;-70
2021/04/12 02:07:44;;;;;;;61.58;7.97;;;3.70;1.00;;;;;;5074270;28;20303;-70
2021/04/12 02:10:41;;;;;;;61.95;7.60;;;3.70;1.00;;;;;;5073920;28;20684;-70
2021/04/12 02:13:19;;;;;;;63.28;8.90;;;3.70;1.00;;;;;;5073928;28;20240;-70
2021/04/12 02:15:51;;;;;;;63.42;9.80;;;3.70;1.00;;;;;;5073908;28;20212;-69
2021/04/12 02:18:39;;;;;;;63.10;8.70;;;3.70;1.00;;;;;;5073704;28;20657;-70
2021/04/12 02:21:20;;;;;;;65.88;9.93;;;3.70;1.00;;;;;;5072060;28;20292;-70
2021/04/12 02:23:58;;;;;;;63.95;9.38;;;3.70;1.00;;;;;;5073582;28;20225;-70
2021/04/12 02:26:36;;;;;;;63.78;9.45;;;3.60;1.00;;;;;;5073844;28;20292;-70
2021/04/12 02:29:25;;;;;;;64.68;9.57;;;3.60;1.00;;;;;;5073606;28;20255;-69
2021/04/12 02:32:04;;;;;;;67.45;10.00;;;3.50;1.00;;;;;;5073753;28;20296;-69
2021/04/12 02:34:39;;;;;;;65.88;10.50;;;3.50;1.00;;;;;;5073606;28;20236;-69
2021/04/12 02:37:30;;;;;;;65.38;9.88;;;3.50;1.00;;;;;;5073443;28;20204;-70
2021/04/12 02:40:23;;;;;;;63.58;9.45;;;3.40;1.00;;;;;;5073572;28;20319;-70
2021/04/12 02:43:04;;;;;;;63.72;9.77;;;3.40;1.00;;;;;;5067146;28;20570;-69
2021/04/12 02:45:39;;;;;;;66.78;10.57;;;3.40;1.00;;;;;;5073333;28;20633;-69
2021/04/12 02:48:29;;;;;;;67.47;11.57;;;3.40;1.00;;;;;;5073724;28;20629;-70
2021/04/12 02:51:19;;;;;;;63.30;9.60;;;3.40;1.00;;;;;;5073454;28;20205;-70
2021/04/12 02:54:26;;;;;;;64.72;10.20;;;3.30;1.00;;;;;;5072728;28;20624;-70
2021/04/12 02:57:25;;;;;;;66.50;9.82;;;3.30;1.00;;;;;;5011217;28;20207;-70
2021/04/12 03:00:16;;;;;;;63.53;9.63;;;3.30;1.00;;;;;;5010876;28;20237;-70
2021/04/12 03:02:58;;;;;;;66.47;10.73;;;3.30;1.00;;;;;;5062322;28;20257;-70
2021/04/12 03:06:03;;;;;;;64.15;9.88;;;3.30;1.00;;;;;;5073017;28;20230;-69
2021/04/12 03:08:49;;;;;;;63.22;9.55;;;3.30;1.00;;;;;;5036656;28;20229;-70
2021/04/12 03:11:49;;;;;;;64.88;10.40;;;3.30;1.00;;;;;;5073191;28;20741;-70
2021/04/12 03:14:41;;;;;;;66.13;10.90;;;3.30;1.00;;;;;;5072913;28;20688;-69
2021/04/12 03:17:21;;;;;;;66.20;10.93;;;3.30;1.00;;;;;;5073043;28;20579;-70
2021/04/12 03:20:21;;;;;;;64.55;10.25;;;3.30;1.00;;;;;;5072999;28;20378;-70
2021/04/12 03:23:10;;;;;;;68.53;11.80;;;3.30;1.00;;;;;;5072582;28;20209;-70
2021/04/12 03:26:03;;;;;;;67.03;10.60;;;3.30;1.00;;;;;;5072522;28;20293;-69
2021/04/12 03:28:46;;;;;;;67.43;11.50;;;3.20;1.00;;;;;;5070067;28;20773;-70
2021/04/12 03:31:45;;;;;;;67.40;11.70;;;3.20;1.00;;;;;;5072492;28;20213;-69
2021/04/12 03:34:27;;;;;;;69.10;12.55;;;3.20;1.00;;;;;;5036078;28;20265;-69
2021/04/12 03:37:11;;;;;;;72.65;11.05;;;3.20;1.00;;;;;;5072523;28;20427;-70
2021/04/12 03:39:51;;;;;;;66.50;11.40;;;3.20;1.00;;;;;;5071927;28;20224;-69
2021/04/12 03:42:31;;;;;;;66.45;10.98;;;3.20;1.00;;;;;;5072474;28;20218;-69
2021/04/12 03:45:27;;;;;;;67.85;11.40;;;3.20;1.00;;;;;;5072145;28;20256;-70
2021/04/12 03:48:27;;;;;;;69.38;11.63;;;3.20;1.00;;;;;;5046142;28;20292;-69
2021/04/12 03:51:32;;;;;;;68.75;12.68;;;3.10;1.00;;;;;;5072169;28;20291;-69
2021/04/12 03:54:22;;;;;;;68.72;10.80;;;3.10;1.00;;;;;;5010142;28;20218;-70
2021/04/12 03:57:10;;;;;;;67.88;10.80;;;3.00;1.00;;;;;;5070897;28;20292;-70
2021/04/12 03:59:43;;;;;;;65.90;10.50;;;3.00;1.00;;;;;;5071746;28;20270;-70
2021/04/12 04:02:41;;;;;;;67.47;10.68;;;3.00;1.00;;;;;;5072007;28;20244;-70
2021/04/12 04:05:20;;;;;;;66.90;10.75;;;3.10;1.00;;;;;;5072054;28;20774;-70
2021/04/12 04:08:22;;;;;;;66.50;11.20;;;3.10;1.00;;;;;;5072106;28;20204;-69
2021/04/12 04:11:16;;;;;;;68.65;12.10;;;3.10;1.00;;;;;;5010218;28;20325;-70
2021/04/12 04:13:58;;;;;;;68.45;10.52;;;3.10;1.00;;;;;;5071056;28;20205;-69
2021/04/12 04:16:34;;;;;;;71.00;12.23;;;3.10;1.00;;;;;;5071697;28;20296;-69
2021/04/12 04:19:06;;;;;;;69.50;10.82;;;3.10;1.00;;;;;;5071651;28;20221;-69
2021/04/12 04:22:17;;;;;;;72.03;11.70;;;3.10;1.00;;;;;;5072094;28;20216;-70
2021/04/12 04:25:22;;;;;;;68.25;11.10;;;3.00;1.00;;;;;;5056015;28;20228;-70
2021/04/12 04:28:18;;;;;;;66.50;11.30;;;3.10;1.00;;;;;;5009974;28;20658;-70
2021/04/12 04:31:15;;;;;;;66.65;11.32;;;3.00;1.00;;;;;;5007707;28;20227;-70
2021/04/12 04:34:14;;;;;;;67.80;10.40;;;3.00;1.00;;;;;;5061974;28;20208;-70
2021/04/12 04:37:03;;;;;;;66.90;10.70;;;3.00;1.00;;;;;;5060159;28;20291;-70
2021/04/12 04:39:51;;;;;;;66.32;10.77;;;3.00;1.00;;;;;;5071550;28;20316;-70
2021/04/12 04:42:42;;;;;;;67.68;11.35;;;3.00;1.00;;;;;;5071371;28;20291;-70
2021/04/12 04:45:32;;;;;;;67.47;10.73;;;3.00;1.00;;;;;;5071686;28;20316;-69
2021/04/12 04:48:28;;;;;;;67.45;11.30;;;3.00;1.00;;;;;;5071555;28;20257;-70
2021/04/12 04:51:16;;;;;;;69.53;12.38;;;3.00;1.00;;;;;;5071789;28;20303;-70
2021/04/12 04:54:01;;;;;;;69.35;10.30;;;3.00;1.00;;;;;;5071525;28;20267;-70
2021/04/12 04:56:37;;;;;;;71.15;13.18;;;3.00;1.00;;;;;;5071430;28;20273;-70
2021/04/12 04:59:26;;;;;;;67.60;12.40;;;3.00;1.00;;;;;;5071138;28;20232;-70
2021/04/12 05:02:23;;;;;;;68.15;11.20;;;3.00;1.00;;;;;;5062177;28;20217;-70
2021/04/12 05:05:27;;;;;;;68.60;12.13;;;3.00;1.00;;;;;;5071807;28;20229;-69
2021/04/12 05:08:21;;;;;;;70.70;11.80;;;3.00;1.00;;;;;;5071576;28;20696;-70
2021/04/12 05:11:05;;;;;;;68.60;11.95;;;3.00;1.00;;;;;;5071530;28;20327;-70
2021/04/12 05:13:48;;;;;;;69.55;11.75;;;3.00;1.00;;;;;;5071021;28;20201;-70
2021/04/12 05:16:31;;;;;;;69.22;12.63;;;3.00;1.00;;;;;;5071209;28;20227;-70
2021/04/12 05:19:51;;;;;;;70.38;12.70;;;3.10;1.00;;;;;;5073505;28;20263;-69
2021/04/12 05:22:37;;;;;;;71.97;12.88;;;3.10;1.00;;;;;;5075173;28;20207;-70
2021/04/12 05:25:18;;;;;;;72.13;14.48;;;3.10;1.00;;;;;;5074857;28;20224;-69
2021/04/12 05:28:12;;;;;;;74.57;14.60;;;3.10;1.00;;;;;;5075170;28;20228;-70
2021/04/12 05:31:04;;;;;;;71.43;13.98;;;3.10;1.00;;;;;;5074922;28;20243;-68
2021/04/12 05:34:10;;;;;;;76.05;14.43;;;3.10;1.00;;;;;;5072354;28;20579;-68
2021/04/12 05:36:48;;;;;;;69.53;13.05;;;3.10;1.00;;;;;;5075066;28;20274;-68
2021/04/12 05:39:27;;;;;;;71.35;13.50;;;3.10;1.00;;;;;;5074765;28;20231;-68
2021/04/12 05:42:14;;;;;;;73.35;14.27;;;3.10;1.00;;;;;;5074554;28;20277;-71
2021/04/12 05:45:03;;;;;;;68.72;12.93;;;3.10;1.00;;;;;;5074606;28;20287;-69
2021/04/12 05:47:41;;;;;;;72.18;13.55;;;3.10;1.00;;;;;;5075037;28;20288;-68
2021/04/12 05:50:34;;;;;;;70.15;12.35;;;3.10;1.00;;;;;;5074580;28;20267;-69
2021/04/12 05:53:26;;;;;;;71.55;13.73;;;3.20;1.00;;;;;;5074388;28;20205;-69
2021/04/12 05:56:17;;;;;;;70.38;12.27;;;3.20;1.00;;;;;;5074794;28;20690;-69
2021/04/12 05:59:18;;;;;;;69.20;11.43;;;3.20;1.00;;;;;;5071825;28;20225;-69
2021/04/12 06:02:17;;;;;;;69.45;12.88;;;3.20;1.00;;;;;;5064068;28;20297;-69
2021/04/12 06:04:56;;;;;;;68.70;12.23;;;3.20;1.00;;;;;;5070466;28;20264;-70
2021/04/12 06:08:08;;;;;;;69.50;12.63;;;3.20;1.00;;;;;;5074263;28;20288;-70
2021/04/12 06:10:58;;;;;;;67.75;12.93;;;3.20;1.00;;;;;;5074269;28;20236;-70
2021/04/12 06:14:13;;;;;;;70.97;12.82;;;3.30;1.00;;;;;;5074323;28;20209;-70
2021/04/12 06:17:08;;;;;;;70.22;13.02;;;3.30;1.00;;;;;;5037935;28;20335;-70
2021/04/12 06:20:04;;;;;;;68.15;11.95;;;3.20;1.00;;;;;;5073908;28;20252;-70
2021/04/12 06:23:06;;;;;;;70.05;12.07;;;3.20;1.00;;;;;;5073898;28;20248;-69
2021/04/12 06:26:02;;;;;;;71.22;12.40;;;3.20;1.00;;;;;;5041479;28;20315;-70
2021/04/12 06:29:01;;;;;;;70.47;13.10;;;3.20;1.00;;;;;;5073521;28;20239;-70
2021/04/12 06:32:18;;;;;;;69.00;13.60;;;3.30;1.00;;;;;;5073852;28;20347;-69
2021/04/12 06:35:07;;;;;;;71.93;14.80;;;3.40;1.00;;;;;;5074221;28;20648;-70
2021/04/12 06:37:54;;;;;;;71.60;14.05;;;3.50;1.00;;;;;;5073958;28;20240;-69
2021/04/12 06:40:56;;;;;;;73.88;15.13;;;3.60;1.00;;;;;;5073341;28;20236;-69
2021/04/12 06:43:55;;;;;;;74.95;14.30;;;3.70;1.00;;;;;;5073637;28;20692;-70
2021/04/12 06:46:47;;;;;;;73.95;15.23;;;3.90;1.00;;;;;;5073605;28;20303;-70
2021/04/12 06:50:02;;;;;;;72.15;13.48;;;4.00;1.00;;;;;;5073111;28;20225;-69
2021/04/12 06:53:16;;;;;;;73.32;14.60;;;4.10;1.00;;;;;;5073432;28;20211;-70
2021/04/12 06:56:39;;;;;;;71.93;14.73;;;4.20;1.00;;;;;;5073136;28;20301;-70
2021/04/12 06:59:33;;;;;;;69.65;13.43;;;4.30;1.00;;;;;;5073051;28;20312;-70
2021/04/12 07:02:43;;;;;;;71.68;14.10;;;4.40;1.00;;;;;;5073494;28;20213;-70
2021/04/12 07:05:38;;;;;;;73.07;14.32;;;4.30;1.00;;;;;;5072860;28;20777;-70
2021/04/12 07:08:29;;;;;;;72.45;13.55;;;4.20;1.00;;;;;;5072870;28;20205;-69
2021/04/12 07:11:33;;;;;;;73.05;14.57;;;4.20;1.00;;;;;;5073310;28;20722;-69
2021/04/12 07:14:48;;;;;;;71.30;14.15;;;4.10;1.00;;;;;;5072867;28;20211;-70
2021/04/12 07:17:41;;;;;;;73.15;14.05;;;4.10;1.00;;;;;;5073222;28;20633;-70
2021/04/12 07:20:25;;;;;;;73.88;15.30;;;4.00;1.00;;;;;;5072929;28;20228;-70
2021/04/12 07:23:27;;;;;;;72.97;15.15;;;3.90;1.00;;;;;;5073075;28;20291;-71
2021/04/12 07:26:27;;;;;;;74.18;14.50;;;3.90;1.00;;;;;;5073010;28;20200;-70
2021/04/12 07:29:41;;;;;;;71.13;14.77;;;3.90;1.00;;;;;;5072613;28;20318;-70
2021/04/12 07:32:34;;;;;;;76.97;14.00;;;3.80;1.00;;;;;;5072702;28;20619;-70
2021/04/12 07:35:31;;;;;;;72.68;15.50;;;3.80;1.00;;;;;;5072920;28;20636;-70
2021/04/12 07:38:33;;;;;;;77.00;17.65;;;3.90;1.00;;;;;;5050870;28;20263;-70
2021/04/12 07:41:47;;;;;;;85.18;18.13;;;3.90;1.00;;;;;;5063042;28;20643;-69
2021/04/12 07:45:04;;;;;;;79.68;18.70;;;4.00;1.00;;;;;;5072225;28;20366;-71
2021/04/12 07:48:32;;;;;;;80.60;17.83;;;4.00;1.00;;;;;;5072059;28;20302;-70
2021/04/12 07:51:32;;;;;;;81.25;20.10;;;4.00;1.00;;;;;;5052315;28;20292;-70
2021/04/12 07:54:40;;;;;;;86.47;20.35;;;4.10;1.00;;;;;;5056399;28;20199;-69
2021/04/12 07:57:44;;;;;;;84.10;19.40;;;4.30;1.00;;;;;;5071670;28;20753;-69
2021/04/12 08:00:44;;;;;;;89.20;24.40;;;4.50;1.00;;;;;;5071696;28;20240;-69
2021/04/12 08:03:40;;;;;;;81.68;20.95;;;4.50;1.00;;;;;;5071980;28;20209;-69
2021/04/12 08:06:41;;;;;;;87.35;23.45;;;4.60;1.00;;;;;;5071799;28;20286;-69
2021/04/12 08:09:33;;;;;;;84.68;23.13;;;4.70;1.00;;;;;;5071907;28;20232;-69
2021/04/12 08:12:39;;;;;;;86.25;23.48;;;4.80;1.00;;;;;;5071857;28;20392;-68
2021/04/12 08:15:33;;;;;;;82.95;21.65;;;4.90;1.00;;;;;;5071862;28;20284;-69
2021/04/12 08:18:29;;;;;;;86.22;22.70;;;5.00;1.00;;;;;;5071646;28;20209;-69
2021/04/12 08:21:25;;;;;;;84.65;24.10;;;5.10;1.00;;;;;;5071444;28;20201;-69
2021/04/12 08:24:22;;;;;;;84.25;22.33;;;5.20;1.00;;;;;;5071496;28;20228;-68
2021/04/12 08:27:30;;;;;;;83.32;22.90;;;5.30;1.00;;;;;;5071999;28;20238;-69
2021/04/12 08:30:53;;;;;;;82.63;21.40;;;5.40;1.00;;;;;;5071417;28;20225;-69
2021/04/12 08:34:07;;;;;;;80.70;21.92;;;5.60;1.00;;;;;;5071243;28;20677;-69
2021/04/12 08:37:08;;;;;;;84.30;20.63;;;5.80;1.00;;;;;;5066291;28;20319;-69
2021/04/12 08:40:07;;;;;;;84.13;21.90;;;6.10;1.00;;;;;;5045257;28;20319;-69
2021/04/12 08:43:07;;;;;;;87.20;24.08;;;6.40;1.00;;;;;;5071172;28;20748;-68
2021/04/12 08:46:10;;;;;;;79.35;20.45;;;6.40;1.00;;;;;;5071293;28;20362;-68
2021/04/12 08:48:52;;;;;;;82.60;23.50;;;6.40;1.00;;;;;;5071428;28;20225;-68
2021/04/12 08:51:47;;;;;;;81.00;21.05;;;6.40;1.00;;;;;;5071411;28;20677;-68
2021/04/12 08:54:52;;;;;;;80.75;22.50;;;6.50;1.00;;;;;;5074053;28;20740;-68
2021/04/12 08:57:54;;;;;;;77.63;19.67;;;6.60;1.00;;;;;;5075873;28;20287;-69
2021/04/12 09:00:57;;;;;;;79.00;19.83;;;6.60;1.00;;;;;;5075432;28;20234;-68
2021/04/12 09:03:48;;;;;;;76.43;19.58;;;6.70;1.00;;;;;;5075291;28;20566;-68
2021/04/12 09:06:44;;;;;;;80.97;20.85;;;6.80;1.00;;;;;;5075172;28;20201;-68
2021/04/12 09:09:51;;;;;;;78.75;20.63;;;6.90;1.00;;;;;;5075193;28;20308;-68
2021/04/12 09:12:46;;;;;;;75.90;19.00;;;6.90;1.00;;;;;;5075254;28;20664;-68
2021/04/12 09:15:49;;;;;;;77.03;18.38;;;6.80;1.00;;;;;;5074871;28;20726;-68
2021/04/12 09:19:07;;;;;;;72.15;17.63;;;6.70;1.00;;;;;;5075043;28;20240;-68
2021/04/12 09:22:24;;;;;;;77.28;18.65;;;6.60;1.00;;;;;;5062282;28;20300;-68
2021/04/12 09:25:26;;;;;;;73.30;17.58;;;6.40;1.00;;;;;;5074791;28;20236;-68
2021/04/12 09:28:19;;;;;;;72.47;17.23;;;6.20;1.00;;;;;;5075026;28;20204;-68
2021/04/12 09:31:22;;;;;;;70.65;16.00;;;6.30;1.00;;;;;;5075102;28;20201;-68
2021/04/12 09:34:39;;;;;;;75.30;17.48;;;6.40;1.00;;;;;;5075048;28;20189;-68
2021/04/12 09:37:59;;;;;;;72.03;16.50;;;6.50;1.00;;;;;;5074653;28;20213;-68
2021/04/12 09:41:04;;;;;;;69.45;16.17;;;6.60;1.00;;;;;;5012297;28;20215;-68
2021/04/12 09:44:16;;;;;;;70.07;15.45;;;6.70;1.00;;;;;;5012499;28;20293;-68
2021/04/12 09:47:10;;;;;;;71.57;15.95;;;6.70;1.00;;;;;;5038349;28;20205;-68
2021/04/12 09:50:10;;;;;;;71.78;15.30;;;6.70;1.00;;;;;;5074189;28;20774;-68
2021/04/12 09:52:54;;;;;;;68.65;14.75;;;6.80;1.00;;;;;;5074262;28;20224;-68
2021/04/12 09:55:54;;;;;;;72.35;15.48;;;7.00;1.00;;;;;;5074386;28;20274;-68
2021/04/12 09:59:04;;;;;;;68.53;15.00;;;7.30;1.00;;;;;;5074123;28;20747;-68
2021/04/12 10:02:03;;;;;;;70.25;14.70;;;7.50;1.00;;;;;;5074183;28;20694;-68
2021/04/12 10:05:06;;;;;;;67.80;15.25;;;7.50;1.00;;;;;;5073653;28;20224;-68
2021/04/12 10:07:57;;;;;;;68.85;13.75;;;7.60;1.00;;;;;;5072060;28;20598;-68
2021/04/12 10:10:27;;;;;;;72.68;13.75;;;7.50;1.00;;;;;;5074697;28;20190;-68
2021/04/12 10:13:15;;;;;;;65.10;13.13;;;7.40;1.00;;;;;;5074225;28;20199;-68
2021/04/12 10:15:57;;;;;;;65.20;12.05;;;7.30;1.00;;;;;;5074097;28;20190;-68
2021/04/12 10:18:34;;;;;;;66.18;12.75;;;7.20;1.00;;;;;;5074177;28;20248;-68
2021/04/12 10:21:15;;;;;;;66.07;12.68;;;7.30;1.00;;;;;;5073943;28;20256;-68
2021/04/12 10:23:44;;;;;;;65.60;11.95;;;7.40;1.00;;;;;;5073497;28;20305;-68
2021/04/12 10:26:16;;;;;;;69.18;12.48;;;7.50;1.00;;;;;;5073957;28;20304;-68
2021/04/12 10:28:48;;;;;;;66.40;12.65;;;7.50;1.00;;;;;;5073593;28;20223;-68
2021/04/12 10:31:26;;;;;;;67.38;12.95;;;7.60;1.00;;;;;;5073957;28;20237;-68
2021/04/12 10:34:15;;;;;;;64.80;11.43;;;7.60;1.00;;;;;;5073595;28;20306;-68
2021/04/12 10:36:51;;;;;;;65.50;11.10;;;7.40;1.00;;;;;;5073764;28;20301;-68
2021/04/12 10:39:28;;;;;;;62.63;9.80;;;7.30;1.00;;;;;;5073697;28;20479;-68
2021/04/12 10:42:01;;;;;;;63.10;10.17;;;7.20;1.00;;;;;;5073327;28;20836;-68
2021/04/12 10:44:35;;;;;;;65.10;11.02;;;7.20;1.00;;;;;;5073369;28;20983;-68
2021/04/12 10:47:07;;;;;;;63.80;10.20;;;7.30;1.00;;;;;;5073566;28;20233;-68
2021/04/12 10:49:51;;;;;;;67.15;11.05;;;7.70;1.00;;;;;;5073199;28;20551;-68
2021/04/12 10:52:23;;;;;;;66.93;12.50;;;8.00;1.00;;;;;;5073081;28;20205;-68
2021/04/12 10:55:10;;;;;;;66.83;11.80;;;8.30;1.00;;;;;;5073337;28;20443;-68
2021/04/12 10:57:43;;;;;;;64.97;11.85;;;8.30;1.00;;;;;;5073460;28;20831;-68
2021/04/12 11:00:29;;;;;;;62.97;11.10;;;8.30;1.00;;;;;;5073145;28;20301;-69
2021/04/12 11:03:28;;;;;;;64.07;11.17;;;8.40;1.00;;;;;;5073176;28;20890;-69
2021/04/12 11:06:22;;;;;;;61.80;10.23;;;8.60;1.00;;;;;;5068116;28;20879;-69
2021/04/12 11:08:55;;;;;;;62.53;11.40;;;8.80;1.00;;;;;;5072902;28;20493;-69
2021/04/12 11:11:25;;;;;;;61.87;9.27;;;8.90;1.00;;;;;;5073003;28;20540;-68
2021/04/12 11:13:54;;;;;;;59.83;7.70;;;9.00;1.00;;;;;;5072492;28;20571;-69
2021/04/12 11:16:27;;;;;;;60.50;8.83;;;9.00;1.00;;;;;;5072059;28;20530;-69
2021/04/12 11:19:18;;;;;;;61.10;9.10;;;9.00;1.00;;;;;;5072805;28;21061;-69
2021/04/12 11:21:55;;;;;;;60.90;9.37;;;8.80;1.00;;;;;;5072601;28;21014;-69
2021/04/12 11:24:28;;;;;;;63.07;10.40;;;8.50;1.00;;;;;;5072596;28;20630;-69
2021/04/12 11:27:40;;;;;;;64.07;11.10;;;8.40;1.00;;;;;;5072809;28;20458;-69
2021/04/12 11:30:16;;;;;;;62.20;9.73;;;8.40;1.00;;;;;;5072482;28;20972;-69
2021/04/12 11:32:58;;;;;;;62.37;11.07;;;8.60;1.00;;;;;;5072212;28;20866;-69
2021/04/12 11:35:35;;;;;;;64.30;11.57;;;8.90;1.00;;;;;;5072855;28;20589;-67
2021/04/12 11:38:08;;;;;;;62.63;10.83;;;9.80;1.00;;;;;;5072375;28;20453;-67
2021/04/12 11:40:39;;;;;;;62.87;9.83;;;10.90;1.00;;;;;;5072026;28;20487;-67
2021/04/12 11:43:11;;;;;;;61.67;10.37;;;11.40;1.00;;;;;;5072110;28;20447;-68
2021/04/12 11:45:42;;;;;;;63.90;9.63;;;11.50;1.00;;;;;;5072336;28;20540;-67
2021/04/12 11:48:15;;;;;;;59.70;8.33;;;11.10;1.00;;;;;;5072205;28;20465;-67
2021/04/12 11:50:51;;;;;;;63.33;7.87;;;10.50;1.00;;;;;;5072252;28;20459;-67
2021/04/12 11:53:32;;;;;;;61.40;8.17;;;9.90;1.00;;;;;;5071955;28;20537;-67
2021/04/12 11:56:02;;;;;;;59.67;8.17;;;9.40;1.00;;;;;;5072250;28;20461;-67
2021/04/12 11:58:35;;;;;;;60.93;8.00;;;9.00;1.00;;;;;;5072267;28;20528;-67
2021/04/12 12:01:08;;;;;;;62.77;8.90;;;8.70;1.00;;;;;;5072061;28;20972;-67
2021/04/12 12:03:56;;;;;;;62.40;9.13;;;8.90;1.00;;;;;;5071929;28;20438;-67
2021/04/12 12:06:40;;;;;;;61.27;9.97;;;10.10;1.00;;;;;;5069589;28;20893;-67
2021/04/12 12:09:15;;;;;;;62.07;10.33;;;12.20;1.00;;;;;;5071875;28;21002;-67
2021/04/12 12:11:50;;;;;;;59.80;8.53;;;14.00;1.00;;;;;;5072281;28;20504;-67
2021/04/12 12:14:27;;;;;;;63.43;8.17;;;15.00;1.00;;;;;;5071978;28;20436;-67
2021/04/12 12:16:55;;;;;;;58.63;6.80;;;15.90;1.00;;;;;;5072263;28;20490;-67
2021/04/12 12:19:30;;;;;;;60.23;7.53;;;16.10;1.00;;;;;;5072178;28;20556;-67
2021/04/12 12:22:05;;;;;;;59.10;7.13;;;15.40;1.00;;;;;;5071981;28;20857;-67
2021/04/12 12:24:41;;;;;;;58.70;6.70;;;14.60;1.00;;;;;;5071693;28;21020;-67
2021/04/12 12:27:12;;;;;;;58.87;6.40;;;13.70;1.00;;;;;;5071945;28;20646;-67
2021/04/12 12:29:43;;;;;;;59.33;7.27;;;13.70;1.00;;;;;;5071561;28;20550;-67
2021/04/12 12:32:48;;;;;;;59.50;6.83;;;13.70;1.00;;;;;;5072119;28;20448;-67
2021/04/12 12:35:26;;;;;;;59.90;8.07;;;14.20;1.00;;;;;;5035152;28;20463;-67
2021/04/12 12:38:20;;;;;;;61.63;7.53;;;13.80;1.00;;;;;;5071863;28;20535;-68
2021/04/12 12:40:50;;;;;;;59.47;6.77;;;13.00;1.00;;;;;;5071586;28;20467;-67
2021/04/12 12:43:24;;;;;;;61.87;7.40;;;12.40;1.00;;;;;;5071333;28;20447;-68
2021/04/12 12:45:52;;;;;;;59.50;7.60;;;11.80;1.00;;;;;;5071276;28;20483;-67
2021/04/12 12:48:21;;;;;;;59.87;7.60;;;11.40;1.00;;;;;;5071350;28;21043;-67
2021/04/12 12:50:53;;;;;;;59.70;7.10;;;11.00;1.00;;;;;;5071393;28;20542;-67
2021/04/12 12:53:25;;;;;;;59.93;7.80;;;10.60;1.00;;;;;;5071493;28;20474;-67
2021/04/12 12:55:55;;;;;;;59.97;7.10;;;10.30;1.00;;;;;;5071232;28;20447;-67
2021/04/12 12:58:24;;;;;;;60.97;8.23;;;10.10;1.00;;;;;;5071648;28;20561;-67
2021/04/12 13:00:52;;;;;;;59.80;8.27;;;9.90;1.00;;;;;;5071369;28;20453;-67
2021/04/12 13:03:27;;;;;;;59.67;7.97;;;9.70;1.00;;;;;;5071286;28;20537;-67
2021/04/12 13:05:56;;;;;;;59.47;8.00;;;9.60;1.00;;;;;;5071192;28;20491;-67
2021/04/12 13:08:25;;;;;;;59.67;7.93;;;9.40;1.00;;;;;;5070900;28;20472;-67
2021/04/12 13:10:54;;;;;;;59.37;6.87;;;9.20;1.00;;;;;;5071123;28;20443;-67
2021/04/12 13:13:30;;;;;;;60.17;7.83;;;9.00;1.00;;;;;;5071247;28;20447;-67
2021/04/12 13:16:09;;;;;;;62.10;8.37;;;9.00;1.00;;;;;;5071056;28;20942;-67
2021/04/12 13:18:38;;;;;;;59.93;8.10;;;8.90;1.00;;;;;;5070961;28;20470;-67
2021/04/12 13:21:13;;;;;;;61.17;8.73;;;9.00;1.00;;;;;;5071528;28;20829;-67
2021/04/12 13:23:54;;;;;;;59.90;8.10;;;9.30;1.00;;;;;;5071228;28;20446;-67
2021/04/12 13:26:27;;;;;;;59.90;7.43;;;9.90;1.00;;;;;;5071083;28;20525;-67
2021/04/12 13:28:57;;;;;;;59.20;6.60;;;11.70;1.00;;;;;;5070921;28;20550;-67
2021/04/12 13:31:36;;;;;;;60.10;6.13;;;13.40;1.00;;;;;;5070878;28;20537;-67
2021/04/12 13:34:10;;;;;;;58.13;5.10;;;14.00;1.00;;;;;;5071283;28;20450;-67
2021/04/12 13:36:41;;;;;;;58.27;5.37;;;13.60;1.00;;;;;;5071010;28;20451;-67
2021/04/12 13:39:12;;;;;;;58.80;5.67;;;13.00;1.00;;;;;;5071969;28;21010;-67
2021/04/12 13:41:45;;;;;;;58.50;5.17;;;12.40;1.00;;;;;;5074385;28;20876;-67
2021/04/12 13:44:14;;;;;;;59.63;5.40;;;12.20;1.00;;;;;;5074615;28;20451;-67
2021/04/12 13:46:56;;;;;;;58.47;5.50;;;12.40;1.00;;;;;;5074602;28;20489;-67
2021/04/12 13:49:28;;;;;;;59.77;5.23;;;12.60;1.00;;;;;;5074616;28;20505;-67
2021/04/12 13:52:03;;;;;;;57.60;4.90;;;12.70;1.00;;;;;;5074377;28;20443;-67
2021/04/12 13:54:39;;;;;;;57.80;5.37;;;13.50;1.00;;;;;;5074679;28;20533;-67
2021/04/12 13:57:14;;;;;;;57.00;4.30;;;14.50;1.00;;;;;;5074428;28;20479;-67
2021/04/12 13:59:45;;;;;;;59.27;4.53;;;15.10;1.00;;;;;;5074369;28;20912;-67
2021/04/12 14:02:21;;;;;;;58.57;3.97;;;15.00;1.00;;;;;;5074057;28;20520;-67
2021/04/12 14:04:53;;;;;;;58.70;4.60;;;14.20;1.00;;;;;;5073830;28;20479;-67
2021/04/12 14:07:30;;;;;;;58.27;4.40;;;13.20;1.00;;;;;;5074324;28;20538;-67
2021/04/12 14:10:05;;;;;;;58.60;4.73;;;12.30;1.00;;;;;;5074145;28;20551;-67
2021/04/12 14:12:39;;;;;;;58.60;5.20;;;11.60;1.00;;;;;;5073889;28;20442;-67
2021/04/12 14:15:08;;;;;;;57.60;4.47;;;11.20;1.00;;;;;;5073761;28;20534;-66
2021/04/12 14:17:39;;;;;;;57.70;4.27;;;11.00;1.00;;;;;;5073921;28;20454;-67
2021/04/12 14:20:10;;;;;;;59.70;5.20;;;10.80;1.00;;;;;;5073874;28;20471;-67
2021/04/12 14:22:43;;;;;;;60.83;5.83;;;10.50;1.00;;;;;;5073775;28;20569;-67
2021/04/12 14:25:17;;;;;;;58.90;5.00;;;10.20;1.00;;;;;;5073695;28;20475;-67
2021/04/12 14:27:44;;;;;;;60.10;6.13;;;10.10;1.00;;;;;;5073776;28;20447;-66
2021/04/12 14:30:15;;;;;;;58.60;5.13;;;10.10;1.00;;;;;;5073612;28;20995;-66
2021/04/12 14:32:45;;;;;;;58.67;5.67;;;10.00;1.00;;;;;;5073502;28;20439;-67
2021/04/12 14:35:19;;;;;;;58.53;5.20;;;9.90;1.00;;;;;;5073706;28;20490;-66